sensor_id;sensor_type;location;lat;lon;timestamp;P1;durP1;ratioP1;P2;durP2;ratioP2
13592;SDS011;6867;50.998;4.250;2024-01-27T00:00:35;13.23;;;4.30;;
13592;SDS011;6867;50.998;4.250;2024-01-27T00:03:02;13.63;;;4.43;;
13592;SDS011;6867;50.998;4.250;2024-01-27T00:05:30;8.80;;;4.73;;
13592;SDS011;6867;50.998;4.250;2024-01-27T00:07:56;13.63;;;5.60;;
13592;SDS011;6867;50.998;4.250;2024-01-27T00:10:23;10.47;;;5.00;;
13592;SDS011;6867;50.998;4.250;2024-01-27T00:12:50;13.37;;;5.40;;
13592;SDS011;6867;50.998;4.250;2024-01-27T00:15:17;14.37;;;4.87;;
13592;SDS011;6867;50.998;4.250;2024-01-27T00:17:43;9.97;;;4.40;;
13592;SDS011;6867;50.998;4.250;2024-01-27T00:20:10;13.17;;;4.90;;
13592;SDS011;6867;50.998;4.250;2024-01-27T00:22:39;12.47;;;5.37;;
13592;SDS011;6867;50.998;4.250;2024-01-27T00:25:06;13.83;;;4.63;;
13592;SDS011;6867;50.998;4.250;2024-01-27T00:27:33;10.87;;;4.57;;
13592;SDS011;6867;50.998;4.250;2024-01-27T00:29:59;11.87;;;5.40;;
13592;SDS011;6867;50.998;4.250;2024-01-27T00:32:26;11.27;;;4.57;;
13592;SDS011;6867;50.998;4.250;2024-01-27T00:34:53;14.57;;;4.87;;
13592;SDS011;6867;50.998;4.250;2024-01-27T00:37:19;10.80;;;4.67;;
13592;SDS011;6867;50.998;4.250;2024-01-27T00:39:47;16.00;;;4.87;;
13592;SDS011;6867;50.998;4.250;2024-01-27T00:42:14;10.80;;;5.20;;
13592;SDS011;6867;50.998;4.250;2024-01-27T00:44:41;11.27;;;5.17;;
13592;SDS011;6867;50.998;4.250;2024-01-27T00:47:08;9.67;;;4.37;;
13592;SDS011;6867;50.998;4.250;2024-01-27T00:49:34;10.10;;;4.80;;
13592;SDS011;6867;50.998;4.250;2024-01-27T00:52:01;14.07;;;6.07;;
13592;SDS011;6867;50.998;4.250;2024-01-27T00:54:28;11.00;;;4.70;;
13592;SDS011;6867;50.998;4.250;2024-01-27T00:56:56;11.93;;;5.00;;
13592;SDS011;6867;50.998;4.250;2024-01-27T00:59:22;14.23;;;5.17;;
13592;SDS011;6867;50.998;4.250;2024-01-27T01:01:49;15.77;;;5.07;;
13592;SDS011;6867;50.998;4.250;2024-01-27T01:04:16;8.77;;;4.97;;
13592;SDS011;6867;50.998;4.250;2024-01-27T01:06:43;20.37;;;5.80;;
13592;SDS011;6867;50.998;4.250;2024-01-27T01:09:09;12.57;;;5.43;;
13592;SDS011;6867;50.998;4.250;2024-01-27T01:11:36;11.37;;;5.17;;
13592;SDS011;6867;50.998;4.250;2024-01-27T01:14:04;10.27;;;4.83;;
13592;SDS011;6867;50.998;4.250;2024-01-27T01:16:31;12.13;;;5.13;;
13592;SDS011;6867;50.998;4.250;2024-01-27T01:18:58;9.83;;;5.10;;
13592;SDS011;6867;50.998;4.250;2024-01-27T01:21:24;8.40;;;5.17;;
13592;SDS011;6867;50.998;4.250;2024-01-27T01:23:51;9.67;;;5.53;;
13592;SDS011;6867;50.998;4.250;2024-01-27T01:26:18;9.27;;;4.57;;
13592;SDS011;6867;50.998;4.250;2024-01-27T01:28:45;9.67;;;5.17;;
13592;SDS011;6867;50.998;4.250;2024-01-27T01:31:13;9.23;;;5.07;;
13592;SDS011;6867;50.998;4.250;2024-01-27T01:33:40;12.33;;;5.33;;
13592;SDS011;6867;50.998;4.250;2024-01-27T01:36:06;10.17;;;5.27;;
13592;SDS011;6867;50.998;4.250;2024-01-27T01:38:33;12.07;;;5.10;;
13592;SDS011;6867;50.998;4.250;2024-01-27T01:41:00;10.93;;;5.17;;
13592;SDS011;6867;50.998;4.250;2024-01-27T01:43:26;10.50;;;5.00;;
13592;SDS011;6867;50.998;4.250;2024-01-27T01:45:53;12.83;;;4.97;;
13592;SDS011;6867;50.998;4.250;2024-01-27T01:48:21;13.43;;;5.27;;
13592;SDS011;6867;50.998;4.250;2024-01-27T01:50:48;12.90;;;5.47;;
13592;SDS011;6867;50.998;4.250;2024-01-27T01:53:16;13.53;;;5.43;;
13592;SDS011;6867;50.998;4.250;2024-01-27T01:55:42;9.37;;;5.27;;
13592;SDS011;6867;50.998;4.250;2024-01-27T01:58:11;11.33;;;5.10;;
13592;SDS011;6867;50.998;4.250;2024-01-27T02:00:38;11.63;;;4.87;;
13592;SDS011;6867;50.998;4.250;2024-01-27T02:03:04;9.40;;;5.10;;
13592;SDS011;6867;50.998;4.250;2024-01-27T02:05:32;10.57;;;5.20;;
13592;SDS011;6867;50.998;4.250;2024-01-27T02:07:59;8.83;;;5.27;;
13592;SDS011;6867;50.998;4.250;2024-01-27T02:10:29;12.97;;;4.97;;
13592;SDS011;6867;50.998;4.250;2024-01-27T02:13:01;10.40;;;5.67;;
13592;SDS011;6867;50.998;4.250;2024-01-27T02:15:28;11.67;;;5.33;;
13592;SDS011;6867;50.998;4.250;2024-01-27T02:17:54;13.23;;;5.67;;
13592;SDS011;6867;50.998;4.250;2024-01-27T02:20:21;13.83;;;5.97;;
13592;SDS011;6867;50.998;4.250;2024-01-27T02:22:49;14.00;;;5.63;;
13592;SDS011;6867;50.998;4.250;2024-01-27T02:25:17;12.33;;;5.33;;
13592;SDS011;6867;50.998;4.250;2024-01-27T02:27:44;13.87;;;5.43;;
13592;SDS011;6867;50.998;4.250;2024-01-27T02:30:11;10.80;;;6.27;;
13592;SDS011;6867;50.998;4.250;2024-01-27T02:32:38;9.80;;;6.07;;
13592;SDS011;6867;50.998;4.250;2024-01-27T02:35:05;17.30;;;5.60;;
13592;SDS011;6867;50.998;4.250;2024-01-27T02:37:32;11.23;;;5.63;;
13592;SDS011;6867;50.998;4.250;2024-01-27T02:39:59;15.47;;;5.50;;
13592;SDS011;6867;50.998;4.250;2024-01-27T02:42:27;13.80;;;6.27;;
13592;SDS011;6867;50.998;4.250;2024-01-27T02:44:54;10.23;;;5.83;;
13592;SDS011;6867;50.998;4.250;2024-01-27T02:47:20;12.57;;;6.30;;
13592;SDS011;6867;50.998;4.250;2024-01-27T02:49:47;17.63;;;6.03;;
13592;SDS011;6867;50.998;4.250;2024-01-27T02:52:14;15.83;;;5.53;;
13592;SDS011;6867;50.998;4.250;2024-01-27T02:54:40;10.70;;;5.17;;
13592;SDS011;6867;50.998;4.250;2024-01-27T02:57:07;13.50;;;6.57;;
13592;SDS011;6867;50.998;4.250;2024-01-27T02:59:35;13.63;;;5.77;;
13592;SDS011;6867;50.998;4.250;2024-01-27T03:02:04;12.17;;;6.23;;
13592;SDS011;6867;50.998;4.250;2024-01-27T03:04:30;10.73;;;5.83;;
13592;SDS011;6867;50.998;4.250;2024-01-27T03:06:57;13.47;;;6.10;;
13592;SDS011;6867;50.998;4.250;2024-01-27T03:09:24;10.50;;;6.20;;
13592;SDS011;6867;50.998;4.250;2024-01-27T03:11:51;13.03;;;6.40;;
13592;SDS011;6867;50.998;4.250;2024-01-27T03:14:17;11.37;;;6.17;;
13592;SDS011;6867;50.998;4.250;2024-01-27T03:16:45;14.73;;;7.20;;
13592;SDS011;6867;50.998;4.250;2024-01-27T03:19:12;22.83;;;7.43;;
13592;SDS011;6867;50.998;4.250;2024-01-27T03:21:39;13.70;;;6.83;;
13592;SDS011;6867;50.998;4.250;2024-01-27T03:24:05;11.80;;;6.57;;
13592;SDS011;6867;50.998;4.250;2024-01-27T03:26:32;12.43;;;6.77;;
13592;SDS011;6867;50.998;4.250;2024-01-27T03:28:59;17.80;;;7.13;;
13592;SDS011;6867;50.998;4.250;2024-01-27T03:31:29;11.73;;;6.20;;
13592;SDS011;6867;50.998;4.250;2024-01-27T03:33:58;13.03;;;6.20;;
13592;SDS011;6867;50.998;4.250;2024-01-27T03:36:25;12.47;;;7.03;;
13592;SDS011;6867;50.998;4.250;2024-01-27T03:38:52;14.70;;;6.87;;
13592;SDS011;6867;50.998;4.250;2024-01-27T03:41:19;15.13;;;7.40;;
13592;SDS011;6867;50.998;4.250;2024-01-27T03:43:46;11.83;;;7.27;;
13592;SDS011;6867;50.998;4.250;2024-01-27T03:46:12;11.23;;;6.93;;
13592;SDS011;6867;50.998;4.250;2024-01-27T03:48:39;15.57;;;7.57;;
13592;SDS011;6867;50.998;4.250;2024-01-27T03:51:07;19.60;;;8.20;;
13592;SDS011;6867;50.998;4.250;2024-01-27T03:53:34;13.87;;;7.63;;
13592;SDS011;6867;50.998;4.250;2024-01-27T03:56:01;19.63;;;7.30;;
13592;SDS011;6867;50.998;4.250;2024-01-27T03:58:29;14.43;;;6.73;;
13592;SDS011;6867;50.998;4.250;2024-01-27T04:00:56;21.27;;;8.20;;
13592;SDS011;6867;50.998;4.250;2024-01-27T04:03:22;12.63;;;6.90;;
13592;SDS011;6867;50.998;4.250;2024-01-27T04:05:49;11.30;;;7.20;;
13592;SDS011;6867;50.998;4.250;2024-01-27T04:08:17;16.17;;;7.37;;
13592;SDS011;6867;50.998;4.250;2024-01-27T04:10:44;12.43;;;6.67;;
13592;SDS011;6867;50.998;4.250;2024-01-27T04:13:11;17.67;;;7.30;;
13592;SDS011;6867;50.998;4.250;2024-01-27T04:15:37;19.03;;;8.23;;
13592;SDS011;6867;50.998;4.250;2024-01-27T04:18:04;17.20;;;8.73;;
13592;SDS011;6867;50.998;4.250;2024-01-27T04:20:33;21.07;;;7.90;;
13592;SDS011;6867;50.998;4.250;2024-01-27T04:22:59;13.60;;;7.17;;
13592;SDS011;6867;50.998;4.250;2024-01-27T04:25:27;14.10;;;6.60;;
13592;SDS011;6867;50.998;4.250;2024-01-27T04:27:54;15.90;;;7.67;;
13592;SDS011;6867;50.998;4.250;2024-01-27T04:30:21;18.20;;;8.67;;
13592;SDS011;6867;50.998;4.250;2024-01-27T04:32:48;16.23;;;8.10;;
13592;SDS011;6867;50.998;4.250;2024-01-27T04:35:17;19.33;;;8.10;;
13592;SDS011;6867;50.998;4.250;2024-01-27T04:37:43;15.93;;;7.53;;
13592;SDS011;6867;50.998;4.250;2024-01-27T04:40:10;17.80;;;8.53;;
13592;SDS011;6867;50.998;4.250;2024-01-27T04:42:39;16.37;;;8.17;;
13592;SDS011;6867;50.998;4.250;2024-01-27T04:45:06;17.90;;;8.80;;
13592;SDS011;6867;50.998;4.250;2024-01-27T04:47:34;13.53;;;7.67;;
13592;SDS011;6867;50.998;4.250;2024-01-27T04:50:00;20.13;;;8.73;;
13592;SDS011;6867;50.998;4.250;2024-01-27T04:52:28;15.57;;;8.00;;
13592;SDS011;6867;50.998;4.250;2024-01-27T04:54:54;15.13;;;7.97;;
13592;SDS011;6867;50.998;4.250;2024-01-27T04:57:21;13.97;;;7.43;;
13592;SDS011;6867;50.998;4.250;2024-01-27T04:59:49;16.50;;;7.90;;
13592;SDS011;6867;50.998;4.250;2024-01-27T05:02:16;17.03;;;7.97;;
13592;SDS011;6867;50.998;4.250;2024-01-27T05:04:43;16.70;;;7.50;;
13592;SDS011;6867;50.998;4.250;2024-01-27T05:07:10;17.87;;;8.40;;
13592;SDS011;6867;50.998;4.250;2024-01-27T05:09:37;16.63;;;7.80;;
13592;SDS011;6867;50.998;4.250;2024-01-27T05:12:04;15.87;;;7.87;;
13592;SDS011;6867;50.998;4.250;2024-01-27T05:14:31;12.73;;;7.10;;
13592;SDS011;6867;50.998;4.250;2024-01-27T05:16:59;16.23;;;8.30;;
13592;SDS011;6867;50.998;4.250;2024-01-27T05:19:26;17.10;;;7.83;;
13592;SDS011;6867;50.998;4.250;2024-01-27T05:21:52;13.13;;;7.50;;
13592;SDS011;6867;50.998;4.250;2024-01-27T05:24:19;19.33;;;8.40;;
13592;SDS011;6867;50.998;4.250;2024-01-27T05:26:46;15.53;;;7.27;;
13592;SDS011;6867;50.998;4.250;2024-01-27T05:29:12;13.23;;;7.73;;
13592;SDS011;6867;50.998;4.250;2024-01-27T05:31:39;18.10;;;7.10;;
13592;SDS011;6867;50.998;4.250;2024-01-27T05:34:09;16.90;;;7.30;;
13592;SDS011;6867;50.998;4.250;2024-01-27T05:36:36;12.67;;;7.53;;
13592;SDS011;6867;50.998;4.250;2024-01-27T05:39:03;15.67;;;7.97;;
13592;SDS011;6867;50.998;4.250;2024-01-27T05:41:29;11.43;;;7.33;;
13592;SDS011;6867;50.998;4.250;2024-01-27T05:43:56;19.13;;;7.40;;
13592;SDS011;6867;50.998;4.250;2024-01-27T05:46:23;16.27;;;7.67;;
13592;SDS011;6867;50.998;4.250;2024-01-27T05:48:50;16.70;;;7.80;;
13592;SDS011;6867;50.998;4.250;2024-01-27T05:51:20;17.97;;;7.90;;
13592;SDS011;6867;50.998;4.250;2024-01-27T05:53:48;14.07;;;7.87;;
13592;SDS011;6867;50.998;4.250;2024-01-27T05:56:14;14.97;;;7.93;;
13592;SDS011;6867;50.998;4.250;2024-01-27T05:58:41;16.70;;;7.67;;
13592;SDS011;6867;50.998;4.250;2024-01-27T06:01:08;10.63;;;7.10;;
13592;SDS011;6867;50.998;4.250;2024-01-27T06:03:34;17.40;;;8.57;;
13592;SDS011;6867;50.998;4.250;2024-01-27T06:06:01;17.50;;;7.07;;
13592;SDS011;6867;50.998;4.250;2024-01-27T06:08:29;18.37;;;8.30;;
13592;SDS011;6867;50.998;4.250;2024-01-27T06:10:56;15.83;;;7.70;;
13592;SDS011;6867;50.998;4.250;2024-01-27T06:13:23;20.67;;;8.47;;
13592;SDS011;6867;50.998;4.250;2024-01-27T06:15:49;23.30;;;7.97;;
13592;SDS011;6867;50.998;4.250;2024-01-27T06:18:17;22.93;;;8.33;;
13592;SDS011;6867;50.998;4.250;2024-01-27T06:20:43;13.10;;;7.37;;
13592;SDS011;6867;50.998;4.250;2024-01-27T06:23:10;12.60;;;7.53;;
13592;SDS011;6867;50.998;4.250;2024-01-27T06:25:38;18.67;;;8.50;;
13592;SDS011;6867;50.998;4.250;2024-01-27T06:28:05;14.37;;;7.30;;
13592;SDS011;6867;50.998;4.250;2024-01-27T06:30:32;19.17;;;7.90;;
13592;SDS011;6867;50.998;4.250;2024-01-27T06:32:58;17.57;;;8.07;;
13592;SDS011;6867;50.998;4.250;2024-01-27T06:35:25;15.93;;;7.30;;
13592;SDS011;6867;50.998;4.250;2024-01-27T06:37:52;17.43;;;8.33;;
13592;SDS011;6867;50.998;4.250;2024-01-27T06:40:18;11.60;;;7.37;;
13592;SDS011;6867;50.998;4.250;2024-01-27T06:42:46;20.30;;;7.63;;
13592;SDS011;6867;50.998;4.250;2024-01-27T06:45:13;18.60;;;7.50;;
13592;SDS011;6867;50.998;4.250;2024-01-27T06:47:40;18.23;;;7.10;;
13592;SDS011;6867;50.998;4.250;2024-01-27T06:50:07;22.73;;;7.63;;
13592;SDS011;6867;50.998;4.250;2024-01-27T06:52:34;13.23;;;7.17;;
13592;SDS011;6867;50.998;4.250;2024-01-27T06:55:00;12.43;;;7.37;;
13592;SDS011;6867;50.998;4.250;2024-01-27T06:57:27;22.20;;;7.60;;
13592;SDS011;6867;50.998;4.250;2024-01-27T06:59:55;12.37;;;7.83;;
13592;SDS011;6867;50.998;4.250;2024-01-27T07:02:22;17.43;;;8.33;;
13592;SDS011;6867;50.998;4.250;2024-01-27T07:04:49;19.87;;;8.23;;
13592;SDS011;6867;50.998;4.250;2024-01-27T07:07:16;21.93;;;8.87;;
13592;SDS011;6867;50.998;4.250;2024-01-27T07:09:43;17.87;;;8.70;;
13592;SDS011;6867;50.998;4.250;2024-01-27T07:12:10;19.63;;;8.73;;
13592;SDS011;6867;50.998;4.250;2024-01-27T07:14:36;14.17;;;8.43;;
13592;SDS011;6867;50.998;4.250;2024-01-27T07:17:04;16.83;;;8.50;;
13592;SDS011;6867;50.998;4.250;2024-01-27T07:19:31;17.67;;;8.33;;
13592;SDS011;6867;50.998;4.250;2024-01-27T07:21:58;17.60;;;7.97;;
13592;SDS011;6867;50.998;4.250;2024-01-27T07:24:26;17.77;;;8.17;;
13592;SDS011;6867;50.998;4.250;2024-01-27T07:26:52;19.77;;;8.47;;
13592;SDS011;6867;50.998;4.250;2024-01-27T07:29:19;19.07;;;8.97;;
13592;SDS011;6867;50.998;4.250;2024-01-27T07:31:46;15.03;;;8.77;;
13592;SDS011;6867;50.998;4.250;2024-01-27T07:34:15;22.43;;;8.27;;
13592;SDS011;6867;50.998;4.250;2024-01-27T07:36:42;19.67;;;8.30;;
13592;SDS011;6867;50.998;4.250;2024-01-27T07:39:08;17.50;;;8.90;;
13592;SDS011;6867;50.998;4.250;2024-01-27T07:41:35;18.27;;;9.00;;
13592;SDS011;6867;50.998;4.250;2024-01-27T07:44:08;22.67;;;8.87;;
13592;SDS011;6867;50.998;4.250;2024-01-27T07:46:35;20.43;;;9.10;;
13592;SDS011;6867;50.998;4.250;2024-01-27T07:49:02;17.63;;;8.90;;
13592;SDS011;6867;50.998;4.250;2024-01-27T07:51:30;16.77;;;7.60;;
13592;SDS011;6867;50.998;4.250;2024-01-27T07:53:57;24.57;;;8.80;;
13592;SDS011;6867;50.998;4.250;2024-01-27T07:56:24;18.93;;;8.73;;
13592;SDS011;6867;50.998;4.250;2024-01-27T07:58:51;18.33;;;9.00;;
13592;SDS011;6867;50.998;4.250;2024-01-27T08:01:18;16.87;;;8.87;;
13592;SDS011;6867;50.998;4.250;2024-01-27T08:03:45;22.73;;;8.33;;
13592;SDS011;6867;50.998;4.250;2024-01-27T08:06:14;18.23;;;8.33;;
13592;SDS011;6867;50.998;4.250;2024-01-27T08:08:44;19.93;;;8.70;;
13592;SDS011;6867;50.998;4.250;2024-01-27T08:11:11;22.13;;;9.07;;
13592;SDS011;6867;50.998;4.250;2024-01-27T08:13:38;20.03;;;8.50;;
13592;SDS011;6867;50.998;4.250;2024-01-27T08:16:05;18.80;;;8.87;;
13592;SDS011;6867;50.998;4.250;2024-01-27T08:18:34;30.63;;;9.33;;
13592;SDS011;6867;50.998;4.250;2024-01-27T08:21:01;23.30;;;9.13;;
13592;SDS011;6867;50.998;4.250;2024-01-27T08:23:28;25.10;;;10.70;;
13592;SDS011;6867;50.998;4.250;2024-01-27T08:25:56;22.57;;;9.00;;
13592;SDS011;6867;50.998;4.250;2024-01-27T08:28:23;18.13;;;9.07;;
13592;SDS011;6867;50.998;4.250;2024-01-27T08:30:49;18.43;;;8.30;;
13592;SDS011;6867;50.998;4.250;2024-01-27T08:33:16;16.40;;;8.67;;
13592;SDS011;6867;50.998;4.250;2024-01-27T08:35:43;29.20;;;9.20;;
13592;SDS011;6867;50.998;4.250;2024-01-27T08:38:09;28.73;;;9.10;;
13592;SDS011;6867;50.998;4.250;2024-01-27T08:40:36;19.80;;;8.83;;
13592;SDS011;6867;50.998;4.250;2024-01-27T08:43:04;18.70;;;9.40;;
13592;SDS011;6867;50.998;4.250;2024-01-27T08:45:32;17.33;;;8.33;;
13592;SDS011;6867;50.998;4.250;2024-01-27T08:47:58;25.60;;;8.87;;
13592;SDS011;6867;50.998;4.250;2024-01-27T08:50:25;18.60;;;9.30;;
13592;SDS011;6867;50.998;4.250;2024-01-27T08:52:52;18.80;;;8.93;;
13592;SDS011;6867;50.998;4.250;2024-01-27T08:55:19;22.77;;;10.23;;
13592;SDS011;6867;50.998;4.250;2024-01-27T08:57:49;22.17;;;9.47;;
13592;SDS011;6867;50.998;4.250;2024-01-27T09:00:17;15.97;;;8.63;;
13592;SDS011;6867;50.998;4.250;2024-01-27T09:02:44;21.37;;;8.87;;
13592;SDS011;6867;50.998;4.250;2024-01-27T09:05:11;21.37;;;9.53;;
13592;SDS011;6867;50.998;4.250;2024-01-27T09:07:38;21.27;;;10.77;;
13592;SDS011;6867;50.998;4.250;2024-01-27T09:10:05;17.23;;;9.67;;
13592;SDS011;6867;50.998;4.250;2024-01-27T09:12:33;20.50;;;9.53;;
13592;SDS011;6867;50.998;4.250;2024-01-27T09:14:59;17.47;;;8.97;;
13592;SDS011;6867;50.998;4.250;2024-01-27T09:17:27;20.93;;;10.37;;
13592;SDS011;6867;50.998;4.250;2024-01-27T09:19:54;22.47;;;10.77;;
13592;SDS011;6867;50.998;4.250;2024-01-27T09:22:21;26.07;;;9.73;;
13592;SDS011;6867;50.998;4.250;2024-01-27T09:24:47;24.47;;;9.47;;
13592;SDS011;6867;50.998;4.250;2024-01-27T09:27:14;20.63;;;9.33;;
13592;SDS011;6867;50.998;4.250;2024-01-27T09:29:42;22.10;;;8.07;;
13592;SDS011;6867;50.998;4.250;2024-01-27T09:32:09;12.67;;;6.67;;
13592;SDS011;6867;50.998;4.250;2024-01-27T09:34:37;18.10;;;6.93;;
13592;SDS011;6867;50.998;4.250;2024-01-27T09:37:04;19.17;;;7.43;;
13592;SDS011;6867;50.998;4.250;2024-01-27T09:39:31;19.67;;;7.37;;
13592;SDS011;6867;50.998;4.250;2024-01-27T09:41:57;14.90;;;6.83;;
13592;SDS011;6867;50.998;4.250;2024-01-27T09:44:30;17.87;;;7.13;;
13592;SDS011;6867;50.998;4.250;2024-01-27T09:46:58;22.47;;;7.33;;
13592;SDS011;6867;50.998;4.250;2024-01-27T09:49:25;18.90;;;7.13;;
13592;SDS011;6867;50.998;4.250;2024-01-27T09:51:54;19.67;;;7.30;;
13592;SDS011;6867;50.998;4.250;2024-01-27T09:54:22;23.30;;;7.47;;
13592;SDS011;6867;50.998;4.250;2024-01-27T09:56:48;20.60;;;7.63;;
13592;SDS011;6867;50.998;4.250;2024-01-27T09:59:17;14.93;;;8.07;;
13592;SDS011;6867;50.998;4.250;2024-01-27T10:01:45;19.97;;;7.00;;
13592;SDS011;6867;50.998;4.250;2024-01-27T10:04:12;15.87;;;6.97;;
13592;SDS011;6867;50.998;4.250;2024-01-27T10:06:40;20.17;;;8.00;;
13592;SDS011;6867;50.998;4.250;2024-01-27T10:09:08;11.60;;;7.13;;
13592;SDS011;6867;50.998;4.250;2024-01-27T10:11:36;21.13;;;8.03;;
13592;SDS011;6867;50.998;4.250;2024-01-27T10:14:05;22.20;;;7.27;;
13592;SDS011;6867;50.998;4.250;2024-01-27T10:16:39;22.33;;;7.60;;
13592;SDS011;6867;50.998;4.250;2024-01-27T10:19:08;22.57;;;8.37;;
13592;SDS011;6867;50.998;4.250;2024-01-27T10:21:41;20.73;;;7.33;;
13592;SDS011;6867;50.998;4.250;2024-01-27T10:24:09;15.30;;;6.57;;
13592;SDS011;6867;50.998;4.250;2024-01-27T10:26:36;15.77;;;6.83;;
13592;SDS011;6867;50.998;4.250;2024-01-27T10:29:03;14.37;;;6.37;;
13592;SDS011;6867;50.998;4.250;2024-01-27T10:31:30;15.03;;;6.20;;
13592;SDS011;6867;50.998;4.250;2024-01-27T10:33:58;20.40;;;7.00;;
13592;SDS011;6867;50.998;4.250;2024-01-27T10:36:26;17.27;;;6.87;;
13592;SDS011;6867;50.998;4.250;2024-01-27T10:38:53;16.27;;;5.80;;
13592;SDS011;6867;50.998;4.250;2024-01-27T10:41:23;17.80;;;5.67;;
13592;SDS011;6867;50.998;4.250;2024-01-27T10:43:51;15.40;;;6.43;;
13592;SDS011;6867;50.998;4.250;2024-01-27T10:46:20;18.00;;;5.70;;
13592;SDS011;6867;50.998;4.250;2024-01-27T10:48:49;13.00;;;5.97;;
13592;SDS011;6867;50.998;4.250;2024-01-27T10:51:18;14.20;;;5.20;;
13592;SDS011;6867;50.998;4.250;2024-01-27T10:53:55;18.30;;;5.60;;
13592;SDS011;6867;50.998;4.250;2024-01-27T10:56:29;10.53;;;4.80;;
13592;SDS011;6867;50.998;4.250;2024-01-27T10:58:58;14.07;;;5.43;;
13592;SDS011;6867;50.998;4.250;2024-01-27T11:01:26;14.30;;;4.97;;
13592;SDS011;6867;50.998;4.250;2024-01-27T11:03:57;15.60;;;5.27;;
13592;SDS011;6867;50.998;4.250;2024-01-27T11:06:24;12.27;;;4.63;;
13592;SDS011;6867;50.998;4.250;2024-01-27T11:08:55;10.53;;;4.50;;
13592;SDS011;6867;50.998;4.250;2024-01-27T11:11:22;13.27;;;4.00;;
13592;SDS011;6867;50.998;4.250;2024-01-27T11:13:51;8.10;;;4.40;;
13592;SDS011;6867;50.998;4.250;2024-01-27T11:16:18;11.43;;;4.00;;
13592;SDS011;6867;50.998;4.250;2024-01-27T11:18:45;13.13;;;5.20;;
13592;SDS011;6867;50.998;4.250;2024-01-27T11:21:14;11.07;;;4.73;;
13592;SDS011;6867;50.998;4.250;2024-01-27T11:23:41;16.43;;;5.03;;
13592;SDS011;6867;50.998;4.250;2024-01-27T11:26:10;7.97;;;3.93;;
13592;SDS011;6867;50.998;4.250;2024-01-27T11:28:39;14.73;;;4.57;;
13592;SDS011;6867;50.998;4.250;2024-01-27T11:31:08;13.37;;;4.27;;
13592;SDS011;6867;50.998;4.250;2024-01-27T11:33:40;14.03;;;3.97;;
13592;SDS011;6867;50.998;4.250;2024-01-27T11:36:14;9.13;;;3.77;;
13592;SDS011;6867;50.998;4.250;2024-01-27T11:38:45;11.30;;;3.40;;
13592;SDS011;6867;50.998;4.250;2024-01-27T11:41:12;7.73;;;3.70;;
13592;SDS011;6867;50.998;4.250;2024-01-27T11:43:39;9.73;;;3.87;;
13592;SDS011;6867;50.998;4.250;2024-01-27T11:46:07;13.23;;;4.07;;
13592;SDS011;6867;50.998;4.250;2024-01-27T11:48:41;18.57;;;4.70;;
13592;SDS011;6867;50.998;4.250;2024-01-27T11:51:10;12.47;;;4.97;;
13592;SDS011;6867;50.998;4.250;2024-01-27T11:53:38;12.37;;;3.40;;
13592;SDS011;6867;50.998;4.250;2024-01-27T11:56:05;15.30;;;3.90;;
13592;SDS011;6867;50.998;4.250;2024-01-27T11:58:32;14.57;;;4.60;;
13592;SDS011;6867;50.998;4.250;2024-01-27T12:00:59;12.87;;;4.17;;
13592;SDS011;6867;50.998;4.250;2024-01-27T12:03:28;10.37;;;4.27;;
13592;SDS011;6867;50.998;4.250;2024-01-27T12:05:56;8.80;;;3.47;;
13592;SDS011;6867;50.998;4.250;2024-01-27T12:08:23;7.83;;;3.20;;
13592;SDS011;6867;50.998;4.250;2024-01-27T12:10:50;10.10;;;3.50;;
13592;SDS011;6867;50.998;4.250;2024-01-27T12:13:18;15.40;;;3.63;;
13592;SDS011;6867;50.998;4.250;2024-01-27T12:15:44;13.57;;;3.73;;
13592;SDS011;6867;50.998;4.250;2024-01-27T12:18:11;12.70;;;4.53;;
13592;SDS011;6867;50.998;4.250;2024-01-27T12:20:39;8.60;;;3.37;;
13592;SDS011;6867;50.998;4.250;2024-01-27T12:23:06;7.97;;;3.70;;
13592;SDS011;6867;50.998;4.250;2024-01-27T12:25:33;9.03;;;3.90;;
13592;SDS011;6867;50.998;4.250;2024-01-27T12:28:05;8.60;;;3.37;;
13592;SDS011;6867;50.998;4.250;2024-01-27T12:30:32;8.50;;;2.70;;
13592;SDS011;6867;50.998;4.250;2024-01-27T12:33:00;7.43;;;2.90;;
13592;SDS011;6867;50.998;4.250;2024-01-27T12:35:26;12.17;;;2.60;;
13592;SDS011;6867;50.998;4.250;2024-01-27T12:37:59;7.73;;;2.80;;
13592;SDS011;6867;50.998;4.250;2024-01-27T12:40:27;6.73;;;2.50;;
13592;SDS011;6867;50.998;4.250;2024-01-27T12:42:53;6.00;;;2.17;;
13592;SDS011;6867;50.998;4.250;2024-01-27T12:45:20;9.13;;;2.67;;
13592;SDS011;6867;50.998;4.250;2024-01-27T12:47:47;7.47;;;3.00;;
13592;SDS011;6867;50.998;4.250;2024-01-27T12:50:14;8.37;;;2.50;;
13592;SDS011;6867;50.998;4.250;2024-01-27T12:52:41;6.67;;;2.83;;
13592;SDS011;6867;50.998;4.250;2024-01-27T12:55:09;9.20;;;2.50;;
13592;SDS011;6867;50.998;4.250;2024-01-27T12:57:36;9.93;;;3.07;;
13592;SDS011;6867;50.998;4.250;2024-01-27T13:00:05;6.83;;;2.57;;
13592;SDS011;6867;50.998;4.250;2024-01-27T13:02:35;6.17;;;2.60;;
13592;SDS011;6867;50.998;4.250;2024-01-27T13:05:01;7.33;;;2.70;;
13592;SDS011;6867;50.998;4.250;2024-01-27T13:07:28;10.17;;;3.43;;
13592;SDS011;6867;50.998;4.250;2024-01-27T13:09:55;6.17;;;2.50;;
13592;SDS011;6867;50.998;4.250;2024-01-27T13:12:23;7.27;;;2.97;;
13592;SDS011;6867;50.998;4.250;2024-01-27T13:14:50;12.97;;;3.20;;
13592;SDS011;6867;50.998;4.250;2024-01-27T13:17:16;8.17;;;3.10;;
13592;SDS011;6867;50.998;4.250;2024-01-27T13:19:44;5.60;;;3.03;;
13592;SDS011;6867;50.998;4.250;2024-01-27T13:22:11;12.17;;;3.40;;
13592;SDS011;6867;50.998;4.250;2024-01-27T13:24:38;6.47;;;3.13;;
13592;SDS011;6867;50.998;4.250;2024-01-27T13:27:05;10.33;;;3.77;;
13592;SDS011;6867;50.998;4.250;2024-01-27T13:29:34;8.70;;;3.30;;
13592;SDS011;6867;50.998;4.250;2024-01-27T13:32:01;11.63;;;3.90;;
13592;SDS011;6867;50.998;4.250;2024-01-27T13:34:28;7.90;;;3.10;;
13592;SDS011;6867;50.998;4.250;2024-01-27T13:36:55;12.87;;;3.20;;
13592;SDS011;6867;50.998;4.250;2024-01-27T13:39:23;9.17;;;3.00;;
13592;SDS011;6867;50.998;4.250;2024-01-27T13:41:50;10.60;;;3.30;;
13592;SDS011;6867;50.998;4.250;2024-01-27T13:44:17;7.23;;;3.23;;
13592;SDS011;6867;50.998;4.250;2024-01-27T13:46:45;10.43;;;3.20;;
13592;SDS011;6867;50.998;4.250;2024-01-27T13:49:12;11.93;;;3.23;;
13592;SDS011;6867;50.998;4.250;2024-01-27T13:51:39;8.90;;;2.40;;
13592;SDS011;6867;50.998;4.250;2024-01-27T13:54:14;9.53;;;3.50;;
13592;SDS011;6867;50.998;4.250;2024-01-27T13:56:41;7.80;;;3.00;;
13592;SDS011;6867;50.998;4.250;2024-01-27T13:59:08;5.17;;;2.60;;
13592;SDS011;6867;50.998;4.250;2024-01-27T14:01:35;7.83;;;2.73;;
13592;SDS011;6867;50.998;4.250;2024-01-27T14:04:01;9.13;;;3.00;;
13592;SDS011;6867;50.998;4.250;2024-01-27T14:06:28;8.73;;;2.77;;
13592;SDS011;6867;50.998;4.250;2024-01-27T14:08:55;8.27;;;2.93;;
13592;SDS011;6867;50.998;4.250;2024-01-27T14:11:23;8.50;;;3.30;;
13592;SDS011;6867;50.998;4.250;2024-01-27T14:13:50;11.87;;;4.33;;
13592;SDS011;6867;50.998;4.250;2024-01-27T14:16:17;10.33;;;4.80;;
13592;SDS011;6867;50.998;4.250;2024-01-27T14:18:43;12.83;;;5.40;;
13592;SDS011;6867;50.998;4.250;2024-01-27T14:21:11;9.93;;;4.10;;
13592;SDS011;6867;50.998;4.250;2024-01-27T14:23:37;8.03;;;3.53;;
13592;SDS011;6867;50.998;4.250;2024-01-27T14:26:04;7.30;;;3.23;;
13592;SDS011;6867;50.998;4.250;2024-01-27T14:28:34;6.73;;;3.10;;
13592;SDS011;6867;50.998;4.250;2024-01-27T14:31:01;8.77;;;3.30;;
13592;SDS011;6867;50.998;4.250;2024-01-27T14:33:28;8.23;;;2.63;;
13592;SDS011;6867;50.998;4.250;2024-01-27T14:35:54;9.27;;;2.93;;
13592;SDS011;6867;50.998;4.250;2024-01-27T14:38:21;6.83;;;2.27;;
13592;SDS011;6867;50.998;4.250;2024-01-27T14:40:48;4.87;;;2.40;;
13592;SDS011;6867;50.998;4.250;2024-01-27T14:43:14;12.37;;;3.10;;
13592;SDS011;6867;50.998;4.250;2024-01-27T14:45:44;9.27;;;2.90;;
13592;SDS011;6867;50.998;4.250;2024-01-27T14:48:11;7.97;;;3.20;;
13592;SDS011;6867;50.998;4.250;2024-01-27T14:50:37;4.53;;;2.77;;